createdAt,value
2017-07-03T00:01:00.379Z,65.70
2017-07-03T00:03:27.806Z,65.50
2017-07-03T00:05:55.256Z,66.40
2017-07-03T00:08:22.673Z,66.30
2017-07-03T00:10:50.890Z,67.50
2017-07-03T00:13:18.313Z,67.40
2017-07-03T00:15:45.745Z,67.40
2017-07-03T00:18:13.187Z,68.50
2017-07-03T00:20:40.619Z,69.10
2017-07-03T00:23:08.133Z,69.10
2017-07-03T00:25:35.573Z,68.90
2017-07-03T00:28:03.008Z,69.40
2017-07-03T00:30:30.447Z,68.80
2017-07-03T00:32:57.885Z,69.30
2017-07-03T00:35:25.309Z,69.30
2017-07-03T00:37:52.752Z,69.40
2017-07-03T00:40:20.187Z,69.60
2017-07-03T00:42:47.627Z,69.20
2017-07-03T00:45:15.056Z,69.80
2017-07-03T00:47:42.479Z,70.50
2017-07-03T00:50:12.107Z,70.40
2017-07-03T00:52:39.609Z,71.20
2017-07-03T00:55:07.072Z,71.60
2017-07-03T00:57:34.509Z,71.50
2017-07-03T01:00:02.731Z,73.60
2017-07-03T01:02:30.220Z,73.60
2017-07-03T01:04:58.434Z,73.60
2017-07-03T01:07:25.900Z,73.60
2017-07-03T01:09:53.337Z,74.50
2017-07-03T01:12:20.776Z,75.20
2017-07-03T01:14:48.208Z,75.40
2017-07-03T01:17:15.664Z,75.50
2017-07-03T01:19:43.101Z,74.60
2017-07-03T01:22:10.544Z,75.60
2017-07-03T01:24:37.985Z,74.80
2017-07-03T01:27:05.428Z,75.20
2017-07-03T01:29:32.956Z,76.10
2017-07-03T01:32:00.397Z,75.50
2017-07-03T01:34:27.831Z,76.00
2017-07-03T01:36:55.264Z,75.50
2017-07-03T01:39:22.721Z,75.90
2017-07-03T01:41:50.157Z,75.50
2017-07-03T01:44:17.600Z,76.20
2017-07-03T01:46:45.049Z,75.50
2017-07-03T01:49:12.492Z,75.20
2017-07-03T01:51:39.944Z,75.50
2017-07-03T01:54:07.392Z,75.60
2017-07-03T01:56:34.823Z,75.30
2017-07-03T01:59:02.264Z,74.70
2017-07-03T02:01:29.705Z,74.70
2017-07-03T02:03:57.145Z,74.30
2017-07-03T02:06:24.601Z,75.20
2017-07-03T02:08:52.036Z,75.10
2017-07-03T02:11:19.488Z,75.60
2017-07-03T02:13:46.929Z,75.20
2017-07-03T02:16:14.374Z,73.90
2017-07-03T02:18:41.805Z,74.90
2017-07-03T02:21:09.240Z,73.70
2017-07-03T02:23:36.677Z,74.10
2017-07-03T02:26:04.116Z,74.60
2017-07-03T02:28:31.583Z,74.90
2017-07-03T02:30:59.020Z,74.80
2017-07-03T02:33:26.467Z,75.10
2017-07-03T02:35:53.902Z,74.40
2017-07-03T02:38:21.344Z,73.40
2017-07-03T02:40:48.779Z,73.80
2017-07-03T02:43:16.207Z,73.50
2017-07-03T02:45:44.360Z,73.00
2017-07-03T02:48:11.791Z,73.90
2017-07-03T02:50:39.245Z,74.10
2017-07-03T02:53:06.682Z,73.60
2017-07-03T02:55:34.198Z,73.80
2017-07-03T02:58:01.625Z,73.60
2017-07-03T03:00:29.051Z,74.00
2017-07-03T03:02:56.496Z,73.90
2017-07-03T03:05:23.928Z,73.40
2017-07-03T03:07:51.371Z,73.40
2017-07-03T03:10:18.814Z,73.20
2017-07-03T03:12:46.248Z,72.90
2017-07-03T03:15:13.684Z,73.00
2017-07-03T03:17:41.125Z,72.30
2017-07-03T03:20:08.564Z,72.90
2017-07-03T03:22:35.996Z,72.80
2017-07-03T03:25:03.451Z,73.00
2017-07-03T03:27:30.886Z,72.70
2017-07-03T03:29:58.329Z,72.90
2017-07-03T03:32:25.763Z,73.30
2017-07-03T03:34:53.216Z,72.60
2017-07-03T03:37:20.646Z,71.70
2017-07-03T03:39:48.088Z,72.50
2017-07-03T03:42:15.520Z,72.30
2017-07-03T03:44:43.732Z,72.60
2017-07-03T03:47:11.175Z,72.60
2017-07-03T03:49:38.609Z,72.50
2017-07-03T03:52:06.088Z,72.60
2017-07-03T03:54:33.521Z,72.00
2017-07-03T03:57:00.965Z,72.40
2017-07-03T03:59:28.405Z,72.40
2017-07-03T04:01:55.858Z,72.20
2017-07-03T04:04:23.279Z,72.10
2017-07-03T04:06:50.729Z,71.90
2017-07-03T04:09:18.160Z,71.50
2017-07-03T04:11:45.605Z,71.70
2017-07-03T04:14:13.047Z,71.50
2017-07-03T04:16:40.501Z,71.70
2017-07-03T04:19:07.928Z,72.00
2017-07-03T04:21:35.368Z,71.10
2017-07-03T04:24:02.835Z,71.30
2017-07-03T04:26:30.376Z,71.10
2017-07-03T04:28:58.248Z,70.90
2017-07-03T04:31:25.672Z,71.30
2017-07-03T04:33:53.121Z,70.70
2017-07-03T04:36:21.323Z,71.10
2017-07-03T04:38:48.769Z,70.30
2017-07-03T04:41:16.201Z,70.50
2017-07-03T04:43:43.652Z,69.60
2017-07-03T04:46:11.092Z,69.30
2017-07-03T04:48:38.525Z,69.70
2017-07-03T04:51:05.960Z,68.90
2017-07-03T04:53:33.396Z,68.50
2017-07-03T04:56:01.609Z,68.10
2017-07-03T04:58:29.034Z,68.10
2017-07-03T05:00:56.526Z,68.40
2017-07-03T05:03:23.959Z,68.70
2017-07-03T05:05:51.392Z,68.80
2017-07-03T05:08:18.829Z,68.00
2017-07-03T05:10:46.281Z,68.10
2017-07-03T05:13:13.736Z,68.00
2017-07-03T05:15:41.187Z,68.10
2017-07-03T05:18:09.414Z,67.90
2017-07-03T05:20:36.848Z,67.90
2017-07-03T05:23:04.288Z,67.20
2017-07-03T05:25:31.824Z,66.90
2017-07-03T05:27:59.256Z,67.20
2017-07-03T05:30:26.688Z,67.50
2017-07-03T05:32:54.127Z,67.10
2017-07-03T05:35:21.576Z,65.90
2017-07-03T05:37:49.036Z,66.20
2017-07-03T05:40:16.469Z,66.90
2017-07-03T05:42:49.532Z,67.40
2017-07-03T05:45:16.961Z,67.20
2017-07-03T05:47:44.378Z,66.20
2017-07-03T05:50:11.825Z,66.20
2017-07-03T05:52:39.260Z,65.70
2017-07-03T05:55:06.700Z,64.70
2017-07-03T05:57:34.136Z,64.10
2017-07-03T06:00:01.625Z,64.60
2017-07-03T06:02:29.064Z,63.80
2017-07-03T06:04:57.284Z,63.20
2017-07-03T06:07:24.767Z,63.10
2017-07-03T06:09:52.955Z,62.40
2017-07-03T06:12:20.391Z,62.40
2017-07-03T06:14:47.829Z,61.40
2017-07-03T06:17:15.256Z,61.00
2017-07-03T06:19:43.170Z,60.60
2017-07-03T06:22:10.615Z,60.90
2017-07-03T06:24:38.039Z,59.70
2017-07-03T06:27:05.501Z,60.30
2017-07-03T06:29:32.924Z,60.50
2017-07-03T06:32:00.360Z,61.00
2017-07-03T06:34:27.793Z,61.10
2017-07-03T06:36:55.221Z,61.60
2017-07-03T06:39:22.685Z,61.20
2017-07-03T06:41:50.109Z,60.50
2017-07-03T06:44:17.545Z,58.70
2017-07-03T06:46:45.030Z,58.60
2017-07-03T06:49:12.473Z,56.80
2017-07-03T06:51:39.900Z,56.50
2017-07-03T06:54:07.335Z,56.80
2017-07-03T06:56:34.783Z,56.80
2017-07-03T06:59:02.210Z,55.10
2017-07-03T07:01:30.016Z,55.60
2017-07-03T07:03:57.449Z,56.20
2017-07-03T07:06:24.887Z,56.60
2017-07-03T07:08:52.328Z,56.60
2017-07-03T07:11:19.787Z,56.80
2017-07-03T07:13:47.216Z,56.40
2017-07-03T07:16:14.667Z,56.00
2017-07-03T07:18:42.106Z,55.90
2017-07-03T07:21:09.531Z,56.10
2017-07-03T07:23:36.970Z,55.20
2017-07-03T07:26:04.476Z,54.50
2017-07-03T07:28:32.822Z,54.40
2017-07-03T07:31:01.019Z,53.60
2017-07-03T07:33:28.473Z,53.50
2017-07-03T07:35:55.904Z,53.40
2017-07-03T07:38:23.355Z,51.20
2017-07-03T07:40:50.784Z,50.00
2017-07-03T07:43:18.212Z,48.30
2017-07-03T07:45:45.654Z,46.70
2017-07-03T07:48:13.079Z,45.60
2017-07-03T07:50:41.287Z,44.40
2017-07-03T07:53:08.722Z,44.40
2017-07-03T07:55:36.155Z,44.20
2017-07-03T07:58:03.583Z,44.60
2017-07-03T08:00:31.055Z,43.90
2017-07-03T08:02:58.497Z,42.70
2017-07-03T08:05:25.937Z,41.90
2017-07-03T08:07:53.372Z,43.30
2017-07-03T08:10:20.813Z,44.10
2017-07-03T08:12:48.245Z,44.00
2017-07-03T08:15:15.712Z,44.90
2017-07-03T08:17:43.145Z,44.30
2017-07-03T08:20:10.597Z,44.90
2017-07-03T08:22:38.027Z,43.80
2017-07-03T08:25:05.464Z,45.10
2017-07-03T08:27:32.904Z,42.40
2017-07-03T08:30:00.331Z,41.30
2017-07-03T08:32:27.767Z,41.70
2017-07-03T08:34:55.200Z,41.50
2017-07-03T08:37:23.404Z,40.60
2017-07-03T08:39:50.880Z,40.50
2017-07-03T08:42:18.320Z,39.50
2017-07-03T08:44:45.752Z,37.90
2017-07-03T08:47:13.204Z,37.60
2017-07-03T08:49:40.619Z,35.60
2017-07-03T08:52:08.058Z,35.60
2017-07-03T08:54:35.504Z,36.40
2017-07-03T08:57:02.936Z,35.70
2017-07-03T08:59:30.376Z,36.80
2017-07-03T09:01:57.808Z,36.80
2017-07-03T09:04:25.259Z,37.70
2017-07-03T09:06:52.701Z,38.00
2017-07-03T09:09:20.148Z,39.20
2017-07-03T09:11:47.581Z,39.10
2017-07-03T09:14:15.042Z,39.60
2017-07-03T09:16:42.472Z,37.00
2017-07-03T09:19:09.897Z,34.70
2017-07-03T09:21:37.336Z,32.50
2017-07-03T09:24:04.768Z,31.10
2017-07-03T09:26:32.964Z,30.50
2017-07-03T09:29:00.399Z,30.40
2017-07-03T09:31:27.847Z,30.30
2017-07-03T09:33:55.290Z,29.50
2017-07-03T09:36:22.748Z,31.40
2017-07-03T09:38:50.182Z,32.80
2017-07-03T09:41:17.624Z,33.90
2017-07-03T09:43:45.073Z,35.20
2017-07-03T09:46:12.504Z,34.30
2017-07-03T09:48:39.931Z,33.30
2017-07-03T09:51:07.403Z,33.50
2017-07-03T09:53:34.820Z,32.10
2017-07-03T09:56:02.252Z,30.70
2017-07-03T09:58:29.746Z,30.80
2017-07-03T10:00:57.257Z,31.10
2017-07-03T10:03:24.708Z,32.20
2017-07-03T10:05:52.139Z,33.50
2017-07-03T10:08:19.577Z,35.30
2017-07-03T10:10:47.012Z,36.90
2017-07-03T10:13:14.528Z,34.60
2017-07-03T10:15:42.063Z,32.80
2017-07-03T10:18:09.552Z,30.60
2017-07-03T10:20:36.992Z,30.20
2017-07-03T10:23:04.440Z,29.70
2017-07-03T10:25:32.673Z,28.00
2017-07-03T10:28:00.891Z,27.90
2017-07-03T10:30:28.323Z,27.90
2017-07-03T10:32:55.757Z,27.60
2017-07-03T10:35:23.201Z,27.90
2017-07-03T10:37:50.627Z,29.60
2017-07-03T10:40:18.087Z,29.70
2017-07-03T10:42:45.513Z,30.50
2017-07-03T10:45:13.844Z,31.10
2017-07-03T10:47:42.364Z,30.70
2017-07-03T10:50:09.836Z,30.00
2017-07-03T10:52:38.051Z,28.70
2017-07-03T10:55:05.543Z,29.60
2017-07-03T10:57:32.967Z,30.20
2017-07-03T11:00:00.425Z,30.10
2017-07-03T11:02:28.896Z,30.90
2017-07-03T11:04:56.341Z,31.00
2017-07-03T11:07:23.764Z,32.70
2017-07-03T11:09:51.192Z,32.30
2017-07-03T11:12:18.640Z,31.40
2017-07-03T11:14:46.101Z,31.20
2017-07-03T11:17:13.543Z,31.60
2017-07-03T11:19:40.968Z,32.60
2017-07-03T11:22:08.400Z,31.80
2017-07-03T11:24:35.881Z,31.80
2017-07-03T11:27:04.100Z,33.40
2017-07-03T11:29:31.538Z,33.40
2017-07-03T11:31:58.993Z,34.40
2017-07-03T11:34:26.421Z,35.00
2017-07-03T11:36:53.851Z,34.80
2017-07-03T11:39:21.292Z,35.50
2017-07-03T11:41:48.724Z,34.80
2017-07-03T11:44:16.163Z,35.80
2017-07-03T11:46:44.363Z,36.10
2017-07-03T11:49:11.805Z,36.10
2017-07-03T11:51:39.237Z,36.30
2017-07-03T11:54:06.799Z,35.50
2017-07-03T11:56:34.225Z,34.10
2017-07-03T11:59:01.785Z,31.40
2017-07-03T12:01:29.203Z,31.20
2017-07-03T12:03:56.631Z,31.60
2017-07-03T12:06:24.073Z,32.00
2017-07-03T12:08:51.501Z,32.40
2017-07-03T12:11:19.733Z,30.90
2017-07-03T12:13:47.160Z,30.90
2017-07-03T12:16:14.603Z,31.50
2017-07-03T12:18:42.026Z,32.10
2017-07-03T12:21:09.500Z,32.80
2017-07-03T12:23:36.929Z,33.30
2017-07-03T12:26:04.777Z,32.50
2017-07-03T12:28:32.197Z,32.90
2017-07-03T12:30:59.639Z,32.50
2017-07-03T12:33:27.085Z,32.50
2017-07-03T12:35:54.546Z,31.60
2017-07-03T12:38:21.973Z,31.80
2017-07-03T12:40:49.404Z,32.00
2017-07-03T12:43:16.866Z,32.80
2017-07-03T12:45:44.295Z,32.50
2017-07-03T12:48:11.781Z,32.20
2017-07-03T12:50:39.227Z,31.50
2017-07-03T12:53:06.664Z,31.90
2017-07-03T12:55:34.338Z,32.10
2017-07-03T12:58:01.768Z,32.10
2017-07-03T13:00:29.207Z,31.80
2017-07-03T13:02:56.709Z,31.00
2017-07-03T13:05:24.165Z,30.70
2017-07-03T13:07:51.609Z,30.10
2017-07-03T13:10:19.044Z,30.10
2017-07-03T13:12:46.504Z,30.40
2017-07-03T13:15:14.792Z,30.50
2017-07-03T13:17:42.219Z,30.20
2017-07-03T13:20:09.656Z,30.40
2017-07-03T13:22:37.121Z,30.50
2017-07-03T13:25:05.390Z,31.10
2017-07-03T13:27:33.588Z,31.30
2017-07-03T13:30:01.036Z,31.00
2017-07-03T13:32:28.489Z,31.20
2017-07-03T13:34:55.936Z,31.20
2017-07-03T13:37:23.363Z,31.90
2017-07-03T13:39:50.809Z,31.50
2017-07-03T13:42:18.269Z,30.90
2017-07-03T13:44:45.698Z,31.20
2017-07-03T13:47:13.133Z,30.00
2017-07-03T13:49:40.646Z,30.10
2017-07-03T13:52:08.864Z,30.50
2017-07-03T13:54:36.302Z,30.50
2017-07-03T13:57:03.760Z,30.90
2017-07-03T13:59:31.189Z,30.20
2017-07-03T14:01:58.627Z,30.40
2017-07-03T14:04:26.685Z,32.00
2017-07-03T14:06:54.128Z,31.80
2017-07-03T14:09:21.573Z,32.50
2017-07-03T14:11:49.016Z,33.40
2017-07-03T14:14:16.448Z,33.50
2017-07-03T14:16:43.911Z,33.50
2017-07-03T14:19:11.347Z,33.00
2017-07-03T14:21:38.781Z,32.50
2017-07-03T14:24:06.222Z,31.60
2017-07-03T14:26:33.662Z,31.10
2017-07-03T14:29:01.115Z,30.80
2017-07-03T14:31:28.543Z,31.00
2017-07-03T14:33:55.980Z,31.40
2017-07-03T14:36:23.415Z,31.90
2017-07-03T14:38:50.852Z,32.00
2017-07-03T14:41:18.275Z,32.40
2017-07-03T14:43:45.708Z,31.90
2017-07-03T14:46:13.907Z,32.60
2017-07-03T14:48:41.338Z,32.60
2017-07-03T14:51:09.750Z,33.10
2017-07-03T14:53:37.170Z,33.40
2017-07-03T14:56:04.604Z,33.60
2017-07-03T14:58:32.046Z,33.60
2017-07-03T15:00:59.492Z,34.00
2017-07-03T15:03:26.912Z,34.40
2017-07-03T15:05:54.359Z,34.30
2017-07-03T15:08:21.804Z,34.60
2017-07-03T15:10:49.224Z,34.50
2017-07-03T15:13:16.675Z,34.90
2017-07-03T15:15:44.095Z,35.00
2017-07-03T15:18:12.304Z,35.90
2017-07-03T15:20:39.741Z,35.90
2017-07-03T15:23:07.224Z,35.60
2017-07-03T15:25:34.659Z,35.60
2017-07-03T15:28:02.100Z,35.90
2017-07-03T15:30:29.537Z,35.00
2017-07-03T15:32:57.128Z,35.30
2017-07-03T15:35:24.568Z,35.00
2017-07-03T15:37:52.039Z,35.80
2017-07-03T15:40:19.506Z,34.90
2017-07-03T15:42:46.979Z,34.90
2017-07-03T15:45:15.184Z,35.00
2017-07-03T15:47:42.642Z,35.10
2017-07-03T15:50:10.098Z,34.90
2017-07-03T15:52:37.548Z,35.50
2017-07-03T15:55:04.980Z,34.90
2017-07-03T15:57:32.460Z,34.50
2017-07-03T16:00:00.673Z,33.90
2017-07-03T16:02:28.110Z,33.90
2017-07-03T16:04:55.550Z,33.70
2017-07-03T16:07:22.986Z,33.70
2017-07-03T16:09:50.417Z,34.20
2017-07-03T16:12:17.869Z,33.90
2017-07-03T16:14:45.370Z,33.90
2017-07-03T16:17:13.573Z,34.40
2017-07-03T16:19:41.136Z,34.30
2017-07-03T16:22:08.590Z,34.80
2017-07-03T16:24:36.033Z,34.90
2017-07-03T16:27:03.461Z,35.20
2017-07-03T16:29:30.916Z,35.60
2017-07-03T16:31:58.382Z,35.20
2017-07-03T16:34:25.768Z,35.50
2017-07-03T16:36:53.211Z,35.40
2017-07-03T16:39:20.645Z,34.40
2017-07-03T16:41:48.088Z,34.90
2017-07-03T16:44:15.575Z,35.50
2017-07-03T16:46:43.008Z,35.30
2017-07-03T16:49:10.474Z,35.30
2017-07-03T16:51:37.927Z,33.80
2017-07-03T16:54:05.343Z,33.50
2017-07-03T16:56:32.787Z,33.20
2017-07-03T16:59:00.203Z,33.50
2017-07-03T17:01:27.652Z,33.70
2017-07-03T17:03:55.076Z,34.50
2017-07-03T17:06:22.555Z,34.50
2017-07-03T17:08:49.987Z,34.20
2017-07-03T17:11:17.428Z,34.30
2017-07-03T17:13:44.863Z,34.50
2017-07-03T17:16:12.302Z,33.80
2017-07-03T17:18:39.748Z,33.80
2017-07-03T17:21:07.195Z,34.10
2017-07-03T17:23:34.627Z,34.50
2017-07-03T17:26:02.056Z,34.60
2017-07-03T17:28:29.487Z,34.80
2017-07-03T17:30:56.924Z,34.90
2017-07-03T17:33:24.372Z,35.60
2017-07-03T17:35:51.787Z,34.70
2017-07-03T17:38:19.994Z,36.30
2017-07-03T17:40:47.415Z,35.60
2017-07-03T17:43:14.856Z,35.80
2017-07-03T17:45:42.286Z,36.00
2017-07-03T17:48:10.489Z,36.50
2017-07-03T17:50:37.916Z,36.40
2017-07-03T17:53:05.372Z,36.60
2017-07-03T17:55:32.805Z,36.60
2017-07-03T17:58:00.244Z,36.70
2017-07-03T18:00:27.667Z,36.30
2017-07-03T18:02:55.099Z,37.10
2017-07-03T18:05:23.307Z,37.00
2017-07-03T18:07:50.747Z,37.00
2017-07-03T18:10:18.188Z,37.60
2017-07-03T18:12:46.145Z,37.60
2017-07-03T18:15:13.591Z,37.70
2017-07-03T18:17:41.043Z,37.80
2017-07-03T18:20:08.456Z,38.10
2017-07-03T18:22:35.913Z,38.50
2017-07-03T18:25:03.340Z,38.60
2017-07-03T18:27:30.794Z,38.70
2017-07-03T18:29:58.227Z,38.50
2017-07-03T18:32:25.675Z,38.80
2017-07-03T18:34:53.113Z,39.10
2017-07-03T18:37:20.547Z,39.00
2017-07-03T18:39:47.983Z,39.30
2017-07-03T18:42:15.453Z,39.30
2017-07-03T18:44:42.888Z,39.30
2017-07-03T18:47:10.332Z,39.70
2017-07-03T18:49:37.763Z,39.10
2017-07-03T18:52:05.201Z,39.00
2017-07-03T18:54:32.669Z,39.30
2017-07-03T18:57:00.140Z,39.70
2017-07-03T18:59:27.577Z,39.40
2017-07-03T19:01:55.004Z,39.60
2017-07-03T19:04:22.441Z,39.20
2017-07-03T19:06:49.872Z,39.10
2017-07-03T19:09:17.331Z,39.20
2017-07-03T19:11:44.770Z,38.70
2017-07-03T19:14:12.208Z,39.30
2017-07-03T19:16:39.642Z,39.00
2017-07-03T19:19:07.131Z,39.00
2017-07-03T19:21:34.560Z,39.20
2017-07-03T19:24:01.997Z,39.40
2017-07-03T19:26:29.432Z,39.40
2017-07-03T19:28:56.881Z,40.00
2017-07-03T19:31:24.316Z,40.30
2017-07-03T19:33:51.756Z,40.70
2017-07-03T19:36:19.237Z,40.60
2017-07-03T19:38:46.759Z,40.60
2017-07-03T19:41:14.196Z,41.10
2017-07-03T19:43:41.640Z,41.30
2017-07-03T19:46:09.089Z,41.20
2017-07-03T19:48:36.524Z,41.20
2017-07-03T19:51:03.952Z,41.70
2017-07-03T19:53:31.376Z,41.80
2017-07-03T19:55:58.808Z,41.80
2017-07-03T19:58:26.266Z,41.80
2017-07-03T20:00:53.728Z,42.10
2017-07-03T20:03:21.173Z,42.10
2017-07-03T20:05:48.603Z,42.20
2017-07-03T20:08:16.045Z,42.40
2017-07-03T20:10:43.472Z,42.60
2017-07-03T20:13:10.926Z,42.80
2017-07-03T20:15:38.360Z,42.70
2017-07-03T20:18:05.821Z,43.20
2017-07-03T20:20:33.254Z,43.10
2017-07-03T20:23:00.688Z,43.20
2017-07-03T20:25:28.380Z,42.60
2017-07-03T20:27:55.806Z,42.80
2017-07-03T20:30:23.244Z,42.70
2017-07-03T20:32:50.699Z,43.10
2017-07-03T20:35:18.136Z,42.90
2017-07-03T20:37:45.579Z,43.40
2017-07-03T20:40:13.019Z,43.70
2017-07-03T20:42:40.450Z,43.80
2017-07-03T20:45:07.900Z,43.70
2017-07-03T20:47:35.338Z,43.70
2017-07-03T20:50:02.875Z,43.90
2017-07-03T20:52:30.354Z,44.10
2017-07-03T20:54:57.776Z,44.30
2017-07-03T20:57:25.216Z,44.40
2017-07-03T20:59:52.677Z,44.40
2017-07-03T21:02:20.113Z,44.60
2017-07-03T21:04:47.603Z,44.80
2017-07-03T21:07:15.033Z,44.60
2017-07-03T21:09:43.230Z,45.20
2017-07-03T21:12:11.479Z,45.10
2017-07-03T21:14:38.901Z,45.10
2017-07-03T21:17:06.352Z,45.30
2017-07-03T21:19:33.793Z,45.40
2017-07-03T21:22:01.289Z,45.40
2017-07-03T21:24:28.728Z,45.60
2017-07-03T21:26:56.152Z,46.00
2017-07-03T21:29:23.617Z,45.70
2017-07-03T21:31:51.093Z,45.60
2017-07-03T21:34:19.302Z,46.20
2017-07-03T21:36:46.764Z,46.20
2017-07-03T21:39:14.199Z,45.90
2017-07-03T21:41:41.664Z,46.10
2017-07-03T21:44:09.885Z,46.30
2017-07-03T21:46:37.316Z,45.80
2017-07-03T21:49:04.758Z,46.10
2017-07-03T21:51:32.185Z,46.40
2017-07-03T21:53:59.662Z,46.50
2017-07-03T21:56:27.105Z,46.50
2017-07-03T21:58:54.527Z,46.30
2017-07-03T22:01:21.964Z,46.50
2017-07-03T22:03:49.392Z,46.80
2017-07-03T22:06:16.837Z,46.90
2017-07-03T22:08:44.265Z,46.80
2017-07-03T22:11:12.455Z,47.40
2017-07-03T22:13:39.892Z,47.40
2017-07-03T22:16:07.330Z,47.80
2017-07-03T22:18:34.765Z,48.10
2017-07-03T22:21:02.240Z,48.10
2017-07-03T22:23:29.725Z,48.80
2017-07-03T22:25:57.925Z,49.30
2017-07-03T22:28:25.368Z,49.30
2017-07-03T22:30:52.888Z,49.90
2017-07-03T22:33:20.478Z,50.50
2017-07-03T22:35:47.920Z,50.70
2017-07-03T22:38:15.462Z,51.50
2017-07-03T22:40:42.900Z,51.90
2017-07-03T22:43:10.376Z,52.60
2017-07-03T22:45:37.827Z,53.20
2017-07-03T22:48:05.253Z,53.40
2017-07-03T22:50:32.692Z,53.70
2017-07-03T22:53:00.139Z,54.00
2017-07-03T22:55:27.568Z,54.30
2017-07-03T22:57:55.001Z,54.30
2017-07-03T23:00:22.445Z,54.30
2017-07-03T23:02:49.905Z,54.40
2017-07-03T23:05:17.332Z,54.50
2017-07-03T23:07:44.760Z,54.60
2017-07-03T23:10:12.195Z,54.60
2017-07-03T23:12:39.630Z,54.50
2017-07-03T23:15:07.061Z,54.60
2017-07-03T23:17:35.261Z,54.40
2017-07-03T23:20:02.706Z,54.40
2017-07-03T23:22:30.145Z,54.50
2017-07-03T23:24:57.581Z,54.50
2017-07-03T23:27:25.022Z,54.40
2017-07-03T23:29:52.452Z,54.30
2017-07-03T23:32:19.888Z,54.20
2017-07-03T23:34:47.318Z,54.30
2017-07-03T23:37:14.759Z,54.50
2017-07-03T23:39:43.054Z,54.80
2017-07-03T23:42:10.503Z,54.80
2017-07-03T23:44:37.955Z,54.80
2017-07-03T23:47:05.406Z,55.00
2017-07-03T23:49:32.837Z,55.70
2017-07-03T23:52:00.328Z,55.40
2017-07-03T23:54:28.581Z,55.80
2017-07-03T23:56:56.773Z,56.10
2017-07-03T23:59:24.208Z,56.10
